sensor_id;sensor_type;location;lat;lon;timestamp;P1;durP1;ratioP1;P2;durP2;ratioP2
4323;SDS011;2175;51.018;6.994;2023-07-31T00:00:46;10.20;;;5.30;;
4323;SDS011;2175;51.018;6.994;2023-07-31T00:03:12;8.50;;;5.33;;
4323;SDS011;2175;51.018;6.994;2023-07-31T00:05:37;14.17;;;4.60;;
4323;SDS011;2175;51.018;6.994;2023-07-31T00:08:03;12.67;;;5.50;;
4323;SDS011;2175;51.018;6.994;2023-07-31T00:10:28;11.43;;;5.20;;
4323;SDS011;2175;51.018;6.994;2023-07-31T00:12:54;14.50;;;5.27;;
4323;SDS011;2175;51.018;6.994;2023-07-31T00:15:20;10.90;;;5.60;;
4323;SDS011;2175;51.018;6.994;2023-07-31T00:17:45;11.93;;;5.30;;
4323;SDS011;2175;51.018;6.994;2023-07-31T00:20:11;10.57;;;5.30;;
4323;SDS011;2175;51.018;6.994;2023-07-31T00:22:37;10.97;;;4.93;;
4323;SDS011;2175;51.018;6.994;2023-07-31T00:25:03;10.53;;;4.70;;
4323;SDS011;2175;51.018;6.994;2023-07-31T00:27:29;10.27;;;4.57;;
4323;SDS011;2175;51.018;6.994;2023-07-31T00:29:54;9.60;;;4.70;;
4323;SDS011;2175;51.018;6.994;2023-07-31T00:32:20;13.53;;;5.67;;
4323;SDS011;2175;51.018;6.994;2023-07-31T00:34:45;7.57;;;4.27;;
4323;SDS011;2175;51.018;6.994;2023-07-31T00:37:11;9.93;;;5.00;;
4323;SDS011;2175;51.018;6.994;2023-07-31T00:39:37;10.60;;;5.50;;
4323;SDS011;2175;51.018;6.994;2023-07-31T00:42:02;17.37;;;5.63;;
4323;SDS011;2175;51.018;6.994;2023-07-31T00:44:28;16.20;;;5.63;;
4323;SDS011;2175;51.018;6.994;2023-07-31T00:46:54;12.47;;;5.00;;
4323;SDS011;2175;51.018;6.994;2023-07-31T00:49:21;11.10;;;5.63;;
4323;SDS011;2175;51.018;6.994;2023-07-31T00:51:47;10.50;;;5.40;;
4323;SDS011;2175;51.018;6.994;2023-07-31T00:54:13;9.80;;;5.00;;
4323;SDS011;2175;51.018;6.994;2023-07-31T00:56:39;11.50;;;6.17;;
4323;SDS011;2175;51.018;6.994;2023-07-31T00:59:06;10.00;;;4.80;;
4323;SDS011;2175;51.018;6.994;2023-07-31T01:01:32;8.37;;;4.90;;
4323;SDS011;2175;51.018;6.994;2023-07-31T01:03:57;11.23;;;4.60;;
4323;SDS011;2175;51.018;6.994;2023-07-31T01:06:28;10.50;;;4.80;;
4323;SDS011;2175;51.018;6.994;2023-07-31T01:09:02;12.97;;;4.60;;
4323;SDS011;2175;51.018;6.994;2023-07-31T01:11:42;15.70;;;4.80;;
4323;SDS011;2175;51.018;6.994;2023-07-31T01:14:16;13.43;;;5.27;;
4323;SDS011;2175;51.018;6.994;2023-07-31T01:16:42;11.70;;;5.60;;
4323;SDS011;2175;51.018;6.994;2023-07-31T01:19:08;12.93;;;4.87;;
4323;SDS011;2175;51.018;6.994;2023-07-31T01:26:30;10.27;;;4.43;;
4323;SDS011;2175;51.018;6.994;2023-07-31T01:31:32;17.07;;;5.27;;
4323;SDS011;2175;51.018;6.994;2023-07-31T01:34:00;13.73;;;5.47;;
4323;SDS011;2175;51.018;6.994;2023-07-31T01:36:27;9.83;;;4.53;;
4323;SDS011;2175;51.018;6.994;2023-07-31T01:38:57;13.37;;;5.77;;
4323;SDS011;2175;51.018;6.994;2023-07-31T01:41:26;11.90;;;5.63;;
4323;SDS011;2175;51.018;6.994;2023-07-31T01:43:52;10.10;;;4.60;;
4323;SDS011;2175;51.018;6.994;2023-07-31T01:46:18;10.17;;;4.77;;
4323;SDS011;2175;51.018;6.994;2023-07-31T01:48:43;13.30;;;5.10;;
4323;SDS011;2175;51.018;6.994;2023-07-31T01:51:09;9.77;;;4.93;;
4323;SDS011;2175;51.018;6.994;2023-07-31T01:53:34;8.90;;;4.73;;
4323;SDS011;2175;51.018;6.994;2023-07-31T01:56:00;11.17;;;5.00;;
4323;SDS011;2175;51.018;6.994;2023-07-31T01:58:26;8.50;;;4.43;;
4323;SDS011;2175;51.018;6.994;2023-07-31T02:00:51;11.03;;;4.90;;
4323;SDS011;2175;51.018;6.994;2023-07-31T02:03:17;15.40;;;5.00;;
4323;SDS011;2175;51.018;6.994;2023-07-31T02:05:46;11.70;;;5.10;;
4323;SDS011;2175;51.018;6.994;2023-07-31T02:08:13;9.07;;;5.07;;
4323;SDS011;2175;51.018;6.994;2023-07-31T02:10:38;11.83;;;4.67;;
4323;SDS011;2175;51.018;6.994;2023-07-31T02:13:04;9.90;;;4.27;;
4323;SDS011;2175;51.018;6.994;2023-07-31T02:15:30;12.60;;;5.17;;
4323;SDS011;2175;51.018;6.994;2023-07-31T02:17:56;10.83;;;4.77;;
4323;SDS011;2175;51.018;6.994;2023-07-31T02:20:22;13.40;;;4.80;;
4323;SDS011;2175;51.018;6.994;2023-07-31T02:22:47;11.43;;;4.93;;
4323;SDS011;2175;51.018;6.994;2023-07-31T02:25:13;10.50;;;5.37;;
4323;SDS011;2175;51.018;6.994;2023-07-31T02:27:39;11.60;;;4.80;;
4323;SDS011;2175;51.018;6.994;2023-07-31T02:30:04;12.60;;;4.97;;
4323;SDS011;2175;51.018;6.994;2023-07-31T02:32:30;14.77;;;5.00;;
4323;SDS011;2175;51.018;6.994;2023-07-31T02:34:56;19.03;;;5.13;;
4323;SDS011;2175;51.018;6.994;2023-07-31T02:37:22;9.50;;;4.57;;
4323;SDS011;2175;51.018;6.994;2023-07-31T02:39:48;11.70;;;4.47;;
4323;SDS011;2175;51.018;6.994;2023-07-31T02:42:14;10.20;;;4.77;;
4323;SDS011;2175;51.018;6.994;2023-07-31T02:44:39;14.20;;;5.30;;
4323;SDS011;2175;51.018;6.994;2023-07-31T02:47:05;8.37;;;4.57;;
4323;SDS011;2175;51.018;6.994;2023-07-31T02:49:31;7.53;;;4.77;;
4323;SDS011;2175;51.018;6.994;2023-07-31T02:51:57;11.63;;;4.90;;
4323;SDS011;2175;51.018;6.994;2023-07-31T02:54:22;9.70;;;4.53;;
4323;SDS011;2175;51.018;6.994;2023-07-31T02:56:48;12.40;;;5.17;;
4323;SDS011;2175;51.018;6.994;2023-07-31T02:59:14;9.70;;;5.23;;
4323;SDS011;2175;51.018;6.994;2023-07-31T03:01:39;8.53;;;5.03;;
4323;SDS011;2175;51.018;6.994;2023-07-31T03:04:05;12.10;;;5.23;;
4323;SDS011;2175;51.018;6.994;2023-07-31T03:06:31;10.80;;;5.07;;
4323;SDS011;2175;51.018;6.994;2023-07-31T03:08:56;11.83;;;5.03;;
4323;SDS011;2175;51.018;6.994;2023-07-31T03:11:22;19.83;;;5.00;;
4323;SDS011;2175;51.018;6.994;2023-07-31T03:13:47;19.27;;;5.80;;
4323;SDS011;2175;51.018;6.994;2023-07-31T03:16:13;11.33;;;5.17;;
4323;SDS011;2175;51.018;6.994;2023-07-31T03:18:39;12.27;;;4.73;;
4323;SDS011;2175;51.018;6.994;2023-07-31T03:21:04;17.87;;;6.00;;
4323;SDS011;2175;51.018;6.994;2023-07-31T03:23:30;12.60;;;5.83;;
4323;SDS011;2175;51.018;6.994;2023-07-31T03:25:56;14.03;;;4.50;;
4323;SDS011;2175;51.018;6.994;2023-07-31T03:28:23;12.50;;;5.70;;
4323;SDS011;2175;51.018;6.994;2023-07-31T03:30:48;11.17;;;5.43;;
4323;SDS011;2175;51.018;6.994;2023-07-31T03:33:14;12.33;;;5.63;;
4323;SDS011;2175;51.018;6.994;2023-07-31T03:35:41;9.40;;;5.03;;
4323;SDS011;2175;51.018;6.994;2023-07-31T03:38:06;12.43;;;5.20;;
4323;SDS011;2175;51.018;6.994;2023-07-31T03:40:32;11.77;;;5.20;;
4323;SDS011;2175;51.018;6.994;2023-07-31T03:42:58;11.87;;;5.23;;
4323;SDS011;2175;51.018;6.994;2023-07-31T03:45:23;12.80;;;5.50;;
4323;SDS011;2175;51.018;6.994;2023-07-31T03:47:49;14.33;;;5.50;;
4323;SDS011;2175;51.018;6.994;2023-07-31T03:50:14;9.67;;;5.07;;
4323;SDS011;2175;51.018;6.994;2023-07-31T03:52:41;12.40;;;5.27;;
4323;SDS011;2175;51.018;6.994;2023-07-31T03:55:06;12.20;;;5.33;;
4323;SDS011;2175;51.018;6.994;2023-07-31T03:57:32;14.70;;;5.20;;
4323;SDS011;2175;51.018;6.994;2023-07-31T03:59:58;11.80;;;5.53;;
4323;SDS011;2175;51.018;6.994;2023-07-31T04:02:24;9.80;;;5.30;;
4323;SDS011;2175;51.018;6.994;2023-07-31T04:04:49;7.47;;;4.97;;
4323;SDS011;2175;51.018;6.994;2023-07-31T04:07:15;10.60;;;5.30;;
4323;SDS011;2175;51.018;6.994;2023-07-31T04:09:40;11.07;;;5.70;;
4323;SDS011;2175;51.018;6.994;2023-07-31T04:12:06;11.43;;;5.07;;
4323;SDS011;2175;51.018;6.994;2023-07-31T04:14:32;11.13;;;5.23;;
4323;SDS011;2175;51.018;6.994;2023-07-31T04:16:57;9.90;;;5.03;;
4323;SDS011;2175;51.018;6.994;2023-07-31T04:19:23;11.87;;;5.50;;
4323;SDS011;2175;51.018;6.994;2023-07-31T04:21:49;10.30;;;5.73;;
4323;SDS011;2175;51.018;6.994;2023-07-31T04:24:15;9.40;;;5.13;;
4323;SDS011;2175;51.018;6.994;2023-07-31T04:26:41;12.27;;;5.63;;
4323;SDS011;2175;51.018;6.994;2023-07-31T04:29:06;14.77;;;5.50;;
4323;SDS011;2175;51.018;6.994;2023-07-31T04:31:33;10.40;;;5.97;;
4323;SDS011;2175;51.018;6.994;2023-07-31T04:33:58;10.43;;;5.40;;
4323;SDS011;2175;51.018;6.994;2023-07-31T04:36:24;11.97;;;5.60;;
4323;SDS011;2175;51.018;6.994;2023-07-31T04:38:50;11.33;;;5.63;;
4323;SDS011;2175;51.018;6.994;2023-07-31T04:41:15;8.50;;;5.90;;
4323;SDS011;2175;51.018;6.994;2023-07-31T04:43:41;9.20;;;5.63;;
4323;SDS011;2175;51.018;6.994;2023-07-31T04:46:07;9.67;;;4.87;;
4323;SDS011;2175;51.018;6.994;2023-07-31T04:48:32;10.33;;;5.87;;
4323;SDS011;2175;51.018;6.994;2023-07-31T04:50:58;11.80;;;5.80;;
4323;SDS011;2175;51.018;6.994;2023-07-31T04:53:23;11.20;;;5.93;;
4323;SDS011;2175;51.018;6.994;2023-07-31T04:55:49;10.87;;;5.80;;
4323;SDS011;2175;51.018;6.994;2023-07-31T04:58:14;11.00;;;5.23;;
4323;SDS011;2175;51.018;6.994;2023-07-31T05:00:40;8.80;;;5.20;;
4323;SDS011;2175;51.018;6.994;2023-07-31T05:03:06;11.60;;;6.57;;
4323;SDS011;2175;51.018;6.994;2023-07-31T05:05:32;13.20;;;6.47;;
4323;SDS011;2175;51.018;6.994;2023-07-31T05:07:57;11.10;;;6.00;;
4323;SDS011;2175;51.018;6.994;2023-07-31T05:10:23;13.90;;;5.70;;
4323;SDS011;2175;51.018;6.994;2023-07-31T05:12:49;12.97;;;5.93;;
4323;SDS011;2175;51.018;6.994;2023-07-31T05:15:14;12.77;;;5.80;;
4323;SDS011;2175;51.018;6.994;2023-07-31T05:17:40;11.77;;;6.10;;
4323;SDS011;2175;51.018;6.994;2023-07-31T05:20:06;10.77;;;5.97;;
4323;SDS011;2175;51.018;6.994;2023-07-31T05:22:32;10.23;;;5.33;;
4323;SDS011;2175;51.018;6.994;2023-07-31T05:24:57;10.80;;;6.40;;
4323;SDS011;2175;51.018;6.994;2023-07-31T05:27:23;8.53;;;5.50;;
4323;SDS011;2175;51.018;6.994;2023-07-31T05:29:48;13.63;;;5.70;;
4323;SDS011;2175;51.018;6.994;2023-07-31T05:32:14;12.07;;;5.57;;
4323;SDS011;2175;51.018;6.994;2023-07-31T05:34:40;9.60;;;5.70;;
4323;SDS011;2175;51.018;6.994;2023-07-31T05:37:05;8.77;;;4.90;;
4323;SDS011;2175;51.018;6.994;2023-07-31T05:39:31;9.17;;;5.43;;
4323;SDS011;2175;51.018;6.994;2023-07-31T05:41:57;8.33;;;5.60;;
4323;SDS011;2175;51.018;6.994;2023-07-31T05:44:22;7.63;;;5.20;;
4323;SDS011;2175;51.018;6.994;2023-07-31T05:46:48;9.73;;;5.67;;
4323;SDS011;2175;51.018;6.994;2023-07-31T05:49:13;9.53;;;4.70;;
4323;SDS011;2175;51.018;6.994;2023-07-31T05:51:39;14.23;;;5.47;;
4323;SDS011;2175;51.018;6.994;2023-07-31T05:54:04;14.70;;;5.93;;
4323;SDS011;2175;51.018;6.994;2023-07-31T05:56:30;9.90;;;5.20;;
4323;SDS011;2175;51.018;6.994;2023-07-31T05:58:56;10.60;;;5.40;;
4323;SDS011;2175;51.018;6.994;2023-07-31T06:01:22;13.10;;;6.00;;
4323;SDS011;2175;51.018;6.994;2023-07-31T06:03:48;13.13;;;6.00;;
4323;SDS011;2175;51.018;6.994;2023-07-31T06:06:13;9.37;;;5.13;;
4323;SDS011;2175;51.018;6.994;2023-07-31T06:08:39;7.00;;;5.07;;
4323;SDS011;2175;51.018;6.994;2023-07-31T06:11:05;10.23;;;5.73;;
4323;SDS011;2175;51.018;6.994;2023-07-31T06:13:32;10.87;;;5.63;;
4323;SDS011;2175;51.018;6.994;2023-07-31T06:15:58;9.07;;;5.40;;
4323;SDS011;2175;51.018;6.994;2023-07-31T06:18:24;11.83;;;4.97;;
4323;SDS011;2175;51.018;6.994;2023-07-31T06:20:50;10.50;;;5.20;;
4323;SDS011;2175;51.018;6.994;2023-07-31T06:23:18;10.47;;;5.97;;
4323;SDS011;2175;51.018;6.994;2023-07-31T06:25:45;13.03;;;6.23;;
4323;SDS011;2175;51.018;6.994;2023-07-31T06:28:11;8.17;;;5.43;;
4323;SDS011;2175;51.018;6.994;2023-07-31T06:30:36;9.37;;;5.03;;
4323;SDS011;2175;51.018;6.994;2023-07-31T06:33:02;12.53;;;6.30;;
4323;SDS011;2175;51.018;6.994;2023-07-31T06:35:28;9.63;;;5.30;;
4323;SDS011;2175;51.018;6.994;2023-07-31T06:37:53;9.63;;;5.70;;
4323;SDS011;2175;51.018;6.994;2023-07-31T06:40:19;9.07;;;5.03;;
4323;SDS011;2175;51.018;6.994;2023-07-31T06:42:44;9.30;;;5.77;;
4323;SDS011;2175;51.018;6.994;2023-07-31T06:45:10;15.13;;;5.80;;
4323;SDS011;2175;51.018;6.994;2023-07-31T06:47:36;13.10;;;6.20;;
4323;SDS011;2175;51.018;6.994;2023-07-31T06:50:02;9.30;;;5.40;;
4323;SDS011;2175;51.018;6.994;2023-07-31T06:52:27;8.87;;;5.67;;
4323;SDS011;2175;51.018;6.994;2023-07-31T06:57:41;14.73;;;5.90;;
4323;SDS011;2175;51.018;6.994;2023-07-31T07:00:07;10.10;;;5.97;;
4323;SDS011;2175;51.018;6.994;2023-07-31T07:02:33;12.83;;;5.37;;
4323;SDS011;2175;51.018;6.994;2023-07-31T07:04:59;9.50;;;5.80;;
4323;SDS011;2175;51.018;6.994;2023-07-31T07:07:24;11.73;;;5.63;;
4323;SDS011;2175;51.018;6.994;2023-07-31T07:09:50;11.80;;;6.00;;
4323;SDS011;2175;51.018;6.994;2023-07-31T07:12:16;10.50;;;5.40;;
4323;SDS011;2175;51.018;6.994;2023-07-31T07:14:41;9.20;;;5.70;;
4323;SDS011;2175;51.018;6.994;2023-07-31T07:17:07;9.67;;;5.20;;
4323;SDS011;2175;51.018;6.994;2023-07-31T07:19:32;9.90;;;5.30;;
4323;SDS011;2175;51.018;6.994;2023-07-31T07:21:58;9.57;;;5.93;;
4323;SDS011;2175;51.018;6.994;2023-07-31T07:24:26;8.27;;;5.50;;
4323;SDS011;2175;51.018;6.994;2023-07-31T07:26:52;10.67;;;5.60;;
4323;SDS011;2175;51.018;6.994;2023-07-31T07:29:18;11.33;;;5.47;;
4323;SDS011;2175;51.018;6.994;2023-07-31T07:31:43;8.80;;;5.73;;
4323;SDS011;2175;51.018;6.994;2023-07-31T07:34:09;11.10;;;5.70;;
4323;SDS011;2175;51.018;6.994;2023-07-31T07:36:34;8.00;;;5.10;;
4323;SDS011;2175;51.018;6.994;2023-07-31T07:39:00;11.00;;;5.70;;
4323;SDS011;2175;51.018;6.994;2023-07-31T07:41:25;11.77;;;5.70;;
4323;SDS011;2175;51.018;6.994;2023-07-31T07:43:51;15.57;;;5.83;;
4323;SDS011;2175;51.018;6.994;2023-07-31T07:46:17;13.00;;;6.77;;
4323;SDS011;2175;51.018;6.994;2023-07-31T07:48:42;13.30;;;6.00;;
4323;SDS011;2175;51.018;6.994;2023-07-31T07:51:08;7.43;;;4.93;;
4323;SDS011;2175;51.018;6.994;2023-07-31T07:53:33;9.83;;;5.30;;
4323;SDS011;2175;51.018;6.994;2023-07-31T07:55:59;10.67;;;5.50;;
4323;SDS011;2175;51.018;6.994;2023-07-31T07:58:24;12.90;;;6.13;;
4323;SDS011;2175;51.018;6.994;2023-07-31T08:00:50;14.73;;;5.40;;
4323;SDS011;2175;51.018;6.994;2023-07-31T08:03:16;11.30;;;6.03;;
4323;SDS011;2175;51.018;6.994;2023-07-31T08:05:43;10.00;;;6.33;;
4323;SDS011;2175;51.018;6.994;2023-07-31T08:08:13;16.33;;;5.43;;
4323;SDS011;2175;51.018;6.994;2023-07-31T08:10:40;9.47;;;5.43;;
4323;SDS011;2175;51.018;6.994;2023-07-31T08:13:05;10.73;;;4.97;;
4323;SDS011;2175;51.018;6.994;2023-07-31T08:15:31;7.47;;;4.70;;
4323;SDS011;2175;51.018;6.994;2023-07-31T08:17:56;9.77;;;4.47;;
4323;SDS011;2175;51.018;6.994;2023-07-31T08:20:22;9.30;;;4.73;;
4323;SDS011;2175;51.018;6.994;2023-07-31T08:22:48;11.17;;;4.93;;
4323;SDS011;2175;51.018;6.994;2023-07-31T08:25:14;9.53;;;4.67;;
4323;SDS011;2175;51.018;6.994;2023-07-31T08:27:42;8.40;;;4.70;;
4323;SDS011;2175;51.018;6.994;2023-07-31T08:30:08;8.20;;;5.07;;
4323;SDS011;2175;51.018;6.994;2023-07-31T08:32:34;9.27;;;5.10;;
4323;SDS011;2175;51.018;6.994;2023-07-31T08:35:00;8.00;;;4.27;;
4323;SDS011;2175;51.018;6.994;2023-07-31T08:37:26;14.07;;;4.60;;
4323;SDS011;2175;51.018;6.994;2023-07-31T08:39:51;8.10;;;4.70;;
4323;SDS011;2175;51.018;6.994;2023-07-31T08:42:18;8.07;;;4.70;;
4323;SDS011;2175;51.018;6.994;2023-07-31T08:44:44;7.73;;;4.33;;
4323;SDS011;2175;51.018;6.994;2023-07-31T08:47:11;9.13;;;4.73;;
4323;SDS011;2175;51.018;6.994;2023-07-31T08:49:37;8.40;;;4.33;;
4323;SDS011;2175;51.018;6.994;2023-07-31T08:52:05;5.83;;;4.00;;
4323;SDS011;2175;51.018;6.994;2023-07-31T08:54:31;13.63;;;5.10;;
4323;SDS011;2175;51.018;6.994;2023-07-31T08:56:58;8.60;;;4.63;;
4323;SDS011;2175;51.018;6.994;2023-07-31T08:59:25;7.33;;;4.60;;
4323;SDS011;2175;51.018;6.994;2023-07-31T09:01:55;7.13;;;4.23;;
4323;SDS011;2175;51.018;6.994;2023-07-31T09:04:25;11.60;;;5.37;;
4323;SDS011;2175;51.018;6.994;2023-07-31T09:06:52;8.17;;;4.70;;
4323;SDS011;2175;51.018;6.994;2023-07-31T09:09:24;7.87;;;4.57;;
4323;SDS011;2175;51.018;6.994;2023-07-31T09:11:50;8.30;;;4.43;;
4323;SDS011;2175;51.018;6.994;2023-07-31T09:14:16;10.00;;;4.77;;
4323;SDS011;2175;51.018;6.994;2023-07-31T09:16:56;8.83;;;4.70;;
4323;SDS011;2175;51.018;6.994;2023-07-31T09:19:32;9.90;;;4.80;;
4323;SDS011;2175;51.018;6.994;2023-07-31T09:21:59;9.20;;;4.63;;
4323;SDS011;2175;51.018;6.994;2023-07-31T09:24:28;7.80;;;4.87;;
4323;SDS011;2175;51.018;6.994;2023-07-31T09:26:59;7.53;;;4.10;;
4323;SDS011;2175;51.018;6.994;2023-07-31T09:29:26;8.00;;;4.50;;
4323;SDS011;2175;51.018;6.994;2023-07-31T09:31:53;8.00;;;4.40;;
4323;SDS011;2175;51.018;6.994;2023-07-31T09:34:19;5.37;;;4.00;;
4323;SDS011;2175;51.018;6.994;2023-07-31T09:36:53;8.10;;;3.90;;
4323;SDS011;2175;51.018;6.994;2023-07-31T09:39:19;8.23;;;4.50;;
4323;SDS011;2175;51.018;6.994;2023-07-31T09:41:47;7.73;;;3.73;;
4323;SDS011;2175;51.018;6.994;2023-07-31T09:44:18;8.07;;;4.47;;
4323;SDS011;2175;51.018;6.994;2023-07-31T09:46:44;8.03;;;4.10;;
4323;SDS011;2175;51.018;6.994;2023-07-31T09:49:11;8.93;;;4.50;;
4323;SDS011;2175;51.018;6.994;2023-07-31T09:51:39;5.70;;;3.80;;
4323;SDS011;2175;51.018;6.994;2023-07-31T09:54:12;7.40;;;3.60;;
4323;SDS011;2175;51.018;6.994;2023-07-31T09:56:41;6.53;;;4.00;;
4323;SDS011;2175;51.018;6.994;2023-07-31T09:59:10;8.23;;;4.10;;
4323;SDS011;2175;51.018;6.994;2023-07-31T10:01:37;7.17;;;4.23;;
4323;SDS011;2175;51.018;6.994;2023-07-31T10:04:04;5.80;;;4.10;;
4323;SDS011;2175;51.018;6.994;2023-07-31T10:06:33;6.73;;;3.83;;
4323;SDS011;2175;51.018;6.994;2023-07-31T10:09:00;7.53;;;3.20;;
4323;SDS011;2175;51.018;6.994;2023-07-31T10:11:29;7.70;;;4.63;;
4323;SDS011;2175;51.018;6.994;2023-07-31T10:13:59;5.70;;;3.93;;
4323;SDS011;2175;51.018;6.994;2023-07-31T10:16:24;7.50;;;4.27;;
4323;SDS011;2175;51.018;6.994;2023-07-31T10:18:51;6.07;;;4.00;;
4323;SDS011;2175;51.018;6.994;2023-07-31T10:21:17;7.80;;;3.77;;
4323;SDS011;2175;51.018;6.994;2023-07-31T10:23:43;4.47;;;3.27;;
4323;SDS011;2175;51.018;6.994;2023-07-31T10:26:11;7.87;;;3.93;;
4323;SDS011;2175;51.018;6.994;2023-07-31T10:28:38;6.37;;;4.00;;
4323;SDS011;2175;51.018;6.994;2023-07-31T10:31:05;6.07;;;3.93;;
4323;SDS011;2175;51.018;6.994;2023-07-31T10:33:31;5.43;;;3.80;;
4323;SDS011;2175;51.018;6.994;2023-07-31T10:38:58;7.10;;;4.03;;
4323;SDS011;2175;51.018;6.994;2023-07-31T10:41:30;6.27;;;3.60;;
4323;SDS011;2175;51.018;6.994;2023-07-31T10:44:02;8.37;;;4.03;;
4323;SDS011;2175;51.018;6.994;2023-07-31T10:46:27;5.67;;;3.73;;
4323;SDS011;2175;51.018;6.994;2023-07-31T10:48:57;7.37;;;4.30;;
4323;SDS011;2175;51.018;6.994;2023-07-31T10:51:24;6.33;;;3.43;;
4323;SDS011;2175;51.018;6.994;2023-07-31T10:54:10;8.07;;;3.70;;
4323;SDS011;2175;51.018;6.994;2023-07-31T10:56:40;6.93;;;3.67;;
4323;SDS011;2175;51.018;6.994;2023-07-31T10:59:10;3.97;;;3.30;;
4323;SDS011;2175;51.018;6.994;2023-07-31T11:01:50;7.00;;;4.23;;
4323;SDS011;2175;51.018;6.994;2023-07-31T11:04:25;5.40;;;3.77;;
4323;SDS011;2175;51.018;6.994;2023-07-31T11:06:58;5.93;;;4.13;;
4323;SDS011;2175;51.018;6.994;2023-07-31T11:09:31;12.53;;;4.37;;
4323;SDS011;2175;51.018;6.994;2023-07-31T11:12:01;6.00;;;3.57;;
4323;SDS011;2175;51.018;6.994;2023-07-31T11:14:27;5.60;;;3.50;;
4323;SDS011;2175;51.018;6.994;2023-07-31T11:16:53;6.07;;;3.93;;
4323;SDS011;2175;51.018;6.994;2023-07-31T11:19:22;9.27;;;3.53;;
4323;SDS011;2175;51.018;6.994;2023-07-31T11:21:49;5.53;;;3.67;;
4323;SDS011;2175;51.018;6.994;2023-07-31T11:24:15;4.43;;;3.00;;
4323;SDS011;2175;51.018;6.994;2023-07-31T11:26:48;5.70;;;2.90;;
4323;SDS011;2175;51.018;6.994;2023-07-31T11:29:15;7.00;;;3.10;;
4323;SDS011;2175;51.018;6.994;2023-07-31T11:31:44;6.23;;;3.00;;
4323;SDS011;2175;51.018;6.994;2023-07-31T11:34:11;5.87;;;3.07;;
4323;SDS011;2175;51.018;6.994;2023-07-31T11:36:37;6.73;;;2.40;;
4323;SDS011;2175;51.018;6.994;2023-07-31T11:39:07;3.93;;;2.37;;
4323;SDS011;2175;51.018;6.994;2023-07-31T11:41:33;5.93;;;2.60;;
4323;SDS011;2175;51.018;6.994;2023-07-31T11:43:59;6.13;;;2.30;;
4323;SDS011;2175;51.018;6.994;2023-07-31T11:46:26;4.30;;;2.43;;
4323;SDS011;2175;51.018;6.994;2023-07-31T11:48:52;2.53;;;1.87;;
4323;SDS011;2175;51.018;6.994;2023-07-31T11:51:23;3.57;;;1.80;;
4323;SDS011;2175;51.018;6.994;2023-07-31T11:53:53;3.23;;;1.77;;
4323;SDS011;2175;51.018;6.994;2023-07-31T11:56:23;1.80;;;1.50;;
4323;SDS011;2175;51.018;6.994;2023-07-31T11:58:51;2.80;;;1.80;;
4323;SDS011;2175;51.018;6.994;2023-07-31T12:01:22;1.90;;;1.70;;
4323;SDS011;2175;51.018;6.994;2023-07-31T12:03:49;2.30;;;1.70;;
4323;SDS011;2175;51.018;6.994;2023-07-31T12:06:17;3.23;;;1.90;;
4323;SDS011;2175;51.018;6.994;2023-07-31T12:08:43;2.57;;;1.77;;
4323;SDS011;2175;51.018;6.994;2023-07-31T12:11:09;3.47;;;1.70;;
4323;SDS011;2175;51.018;6.994;2023-07-31T12:13:35;4.00;;;1.73;;
4323;SDS011;2175;51.018;6.994;2023-07-31T12:16:01;2.63;;;2.03;;
4323;SDS011;2175;51.018;6.994;2023-07-31T12:18:29;3.10;;;2.13;;
4323;SDS011;2175;51.018;6.994;2023-07-31T12:20:59;3.67;;;1.93;;
4323;SDS011;2175;51.018;6.994;2023-07-31T12:23:27;4.33;;;1.80;;
4323;SDS011;2175;51.018;6.994;2023-07-31T12:26:00;2.37;;;1.83;;
4323;SDS011;2175;51.018;6.994;2023-07-31T12:28:35;4.00;;;2.33;;
4323;SDS011;2175;51.018;6.994;2023-07-31T12:31:08;2.63;;;2.13;;
4323;SDS011;2175;51.018;6.994;2023-07-31T12:33:35;5.67;;;1.87;;
4323;SDS011;2175;51.018;6.994;2023-07-31T12:36:02;3.97;;;2.37;;
4323;SDS011;2175;51.018;6.994;2023-07-31T12:38:29;4.43;;;2.47;;
4323;SDS011;2175;51.018;6.994;2023-07-31T12:40:55;3.90;;;2.57;;
4323;SDS011;2175;51.018;6.994;2023-07-31T12:43:21;6.90;;;2.97;;
4323;SDS011;2175;51.018;6.994;2023-07-31T12:45:47;4.50;;;3.10;;
4323;SDS011;2175;51.018;6.994;2023-07-31T12:48:13;5.63;;;3.03;;
4323;SDS011;2175;51.018;6.994;2023-07-31T12:50:38;3.83;;;2.70;;
4323;SDS011;2175;51.018;6.994;2023-07-31T12:53:04;4.20;;;3.07;;
4323;SDS011;2175;51.018;6.994;2023-07-31T12:55:30;7.27;;;3.57;;
4323;SDS011;2175;51.018;6.994;2023-07-31T12:57:57;3.40;;;2.93;;
4323;SDS011;2175;51.018;6.994;2023-07-31T13:00:23;4.07;;;3.33;;
4323;SDS011;2175;51.018;6.994;2023-07-31T13:02:52;5.30;;;2.93;;
4323;SDS011;2175;51.018;6.994;2023-07-31T13:05:17;5.23;;;3.00;;
4323;SDS011;2175;51.018;6.994;2023-07-31T13:07:45;3.77;;;3.00;;
4323;SDS011;2175;51.018;6.994;2023-07-31T13:10:11;4.93;;;3.07;;
4323;SDS011;2175;51.018;6.994;2023-07-31T13:12:37;3.93;;;3.10;;
4323;SDS011;2175;51.018;6.994;2023-07-31T13:15:03;4.63;;;3.50;;
4323;SDS011;2175;51.018;6.994;2023-07-31T13:17:30;5.80;;;3.40;;
4323;SDS011;2175;51.018;6.994;2023-07-31T13:19:56;5.90;;;3.20;;
4323;SDS011;2175;51.018;6.994;2023-07-31T13:22:21;5.90;;;3.10;;
4323;SDS011;2175;51.018;6.994;2023-07-31T13:24:48;9.67;;;3.67;;
4323;SDS011;2175;51.018;6.994;2023-07-31T13:27:14;4.30;;;3.57;;
4323;SDS011;2175;51.018;6.994;2023-07-31T13:29:45;4.27;;;3.33;;
4323;SDS011;2175;51.018;6.994;2023-07-31T13:32:10;3.77;;;3.27;;
4323;SDS011;2175;51.018;6.994;2023-07-31T13:34:36;4.93;;;3.60;;
4323;SDS011;2175;51.018;6.994;2023-07-31T13:37:02;4.10;;;3.20;;
4323;SDS011;2175;51.018;6.994;2023-07-31T13:39:28;3.30;;;3.00;;
4323;SDS011;2175;51.018;6.994;2023-07-31T13:41:54;6.00;;;3.37;;
4323;SDS011;2175;51.018;6.994;2023-07-31T13:44:20;5.80;;;3.40;;
4323;SDS011;2175;51.018;6.994;2023-07-31T13:46:46;3.97;;;3.57;;
4323;SDS011;2175;51.018;6.994;2023-07-31T13:49:11;4.33;;;3.47;;
4323;SDS011;2175;51.018;6.994;2023-07-31T13:51:37;4.20;;;3.30;;
4323;SDS011;2175;51.018;6.994;2023-07-31T13:54:04;5.93;;;4.20;;
4323;SDS011;2175;51.018;6.994;2023-07-31T13:56:31;4.40;;;3.20;;
4323;SDS011;2175;51.018;6.994;2023-07-31T13:59:00;5.03;;;3.50;;
4323;SDS011;2175;51.018;6.994;2023-07-31T14:01:26;7.17;;;3.40;;
4323;SDS011;2175;51.018;6.994;2023-07-31T14:03:52;6.40;;;3.20;;
4323;SDS011;2175;51.018;6.994;2023-07-31T14:06:18;5.10;;;3.10;;
4323;SDS011;2175;51.018;6.994;2023-07-31T14:08:44;5.43;;;3.40;;
4323;SDS011;2175;51.018;6.994;2023-07-31T14:11:09;4.70;;;3.20;;
4323;SDS011;2175;51.018;6.994;2023-07-31T14:13:35;4.37;;;3.47;;
4323;SDS011;2175;51.018;6.994;2023-07-31T14:16:01;4.63;;;3.10;;
4323;SDS011;2175;51.018;6.994;2023-07-31T14:18:26;7.40;;;3.33;;
4323;SDS011;2175;51.018;6.994;2023-07-31T14:20:52;4.20;;;3.10;;
4323;SDS011;2175;51.018;6.994;2023-07-31T14:23:18;5.50;;;3.70;;
4323;SDS011;2175;51.018;6.994;2023-07-31T14:25:44;7.40;;;3.50;;
4323;SDS011;2175;51.018;6.994;2023-07-31T14:28:11;4.57;;;3.43;;
4323;SDS011;2175;51.018;6.994;2023-07-31T14:30:36;8.60;;;3.50;;
4323;SDS011;2175;51.018;6.994;2023-07-31T14:33:02;4.90;;;3.30;;
4323;SDS011;2175;51.018;6.994;2023-07-31T14:35:28;7.00;;;3.37;;
4323;SDS011;2175;51.018;6.994;2023-07-31T14:37:54;5.20;;;3.10;;
4323;SDS011;2175;51.018;6.994;2023-07-31T14:40:22;10.67;;;3.93;;
4323;SDS011;2175;51.018;6.994;2023-07-31T14:42:48;6.47;;;3.60;;
4323;SDS011;2175;51.018;6.994;2023-07-31T14:45:14;4.60;;;3.30;;
4323;SDS011;2175;51.018;6.994;2023-07-31T14:47:39;4.70;;;3.50;;
4323;SDS011;2175;51.018;6.994;2023-07-31T14:50:05;5.20;;;3.43;;
4323;SDS011;2175;51.018;6.994;2023-07-31T14:52:31;5.33;;;3.57;;
4323;SDS011;2175;51.018;6.994;2023-07-31T14:54:56;7.30;;;4.03;;
4323;SDS011;2175;51.018;6.994;2023-07-31T14:57:22;5.50;;;4.07;;
4323;SDS011;2175;51.018;6.994;2023-07-31T14:59:48;6.43;;;3.97;;
4323;SDS011;2175;51.018;6.994;2023-07-31T15:02:14;4.67;;;4.00;;
4323;SDS011;2175;51.018;6.994;2023-07-31T15:04:40;5.83;;;3.53;;
4323;SDS011;2175;51.018;6.994;2023-07-31T15:07:06;5.60;;;4.30;;
4323;SDS011;2175;51.018;6.994;2023-07-31T15:09:32;4.80;;;3.63;;
4323;SDS011;2175;51.018;6.994;2023-07-31T15:11:57;5.80;;;3.60;;
4323;SDS011;2175;51.018;6.994;2023-07-31T15:14:23;5.77;;;4.10;;
4323;SDS011;2175;51.018;6.994;2023-07-31T15:16:50;5.83;;;4.53;;
4323;SDS011;2175;51.018;6.994;2023-07-31T15:19:15;7.43;;;4.40;;